KLM1712 LFPG-ESSA
Flight info
| Callsign | KLM1712 |
|---|---|
| Flight time | N/A |
| Altitude | FL070 |
| Route | DCT NURMO N874 PERON N874 SULEX N874 CMB DCT VEKIN N873 ADUTO N873 FERDI N873 HELEN N873 VICOT N873 DOFMU N873 EKROS N873 SPY N873 BETUS N873 ANDIK N873 KEKIX N873 GRONY N873 BEDUM N873 LABIL N873 JUIST DCT DOSUR P729 TALSA Z702 AMTOT DCT BEDOS N851 NEFYN N851 MIKNA N851 PELUP Z226 NILUG DCT |
| Aircraft | B738 |
Departure
| Time | 2026-05-08 21:25 |
|---|---|
| Airport | Charles de Gaulle International Airport (LFPG) |
Arrival
| Time | N/A |
|---|---|
| Airport | Stockholm-Arlanda Airport (ESSA) |
| Time | Latitude | Longitude | Altitude | Speed | Heading |
|---|---|---|---|---|---|
| 2026-05-08 19:55 | 49.00569 | 2.56664 | 362 ft | 0 kts | 175° |
| 2026-05-08 20:52 | 49.00574 | 2.56663 | 362 ft | 2 kts | 175° |
| 2026-05-08 20:52 | 49.00590 | 2.56663 | 362 ft | 2 kts | 194° |
| 2026-05-08 20:52 | 49.00599 | 2.56668 | 363 ft | 2 kts | 207° |
| 2026-05-08 20:52 | 49.00615 | 2.56687 | 363 ft | 2 kts | 234° |
| 2026-05-08 20:53 | 49.00622 | 2.56708 | 364 ft | 2 kts | 255° |
| 2026-05-08 20:53 | 49.00623 | 2.56717 | 364 ft | 0 kts | 263° |
| 2026-05-08 20:53 | 49.00624 | 2.56728 | 364 ft | 0 kts | 266° |
| 2026-05-08 21:00 | 49.00617 | 2.56610 | 362 ft | 18 kts | 265° |
| 2026-05-08 21:01 | 49.00605 | 2.56409 | 356 ft | 13 kts | 265° |
| 2026-05-08 21:01 | 49.00601 | 2.56350 | 354 ft | 2 kts | 265° |
| 2026-05-08 21:01 | 49.00601 | 2.56348 | 354 ft | 0 kts | 265° |
| 2026-05-08 21:03 | 49.00601 | 2.56336 | 354 ft | 6 kts | 265° |
| 2026-05-08 21:03 | 49.00595 | 2.56185 | 351 ft | 22 kts | 267° |
| 2026-05-08 21:03 | 49.00580 | 2.55991 | 347 ft | 13 kts | 259° |
| 2026-05-08 21:04 | 49.00566 | 2.55826 | 342 ft | 18 kts | 265° |
| 2026-05-08 21:04 | 49.00560 | 2.55698 | 340 ft | 1 kts | 265° |
| 2026-05-08 21:07 | 49.00555 | 2.55617 | 338 ft | 15 kts | 264° |
| 2026-05-08 21:07 | 49.00566 | 2.55472 | 336 ft | 11 kts | 297° |
| 2026-05-08 21:07 | 49.00607 | 2.55406 | 337 ft | 15 kts | 329° |
| 2026-05-08 21:07 | 49.00743 | 2.55341 | 339 ft | 6 kts | 345° |
| 2026-05-08 21:08 | 49.00764 | 2.55333 | 340 ft | 0 kts | 346° |
| 2026-05-08 21:08 | 49.00769 | 2.55331 | 340 ft | 4 kts | 346° |
| 2026-05-08 21:08 | 49.00818 | 2.55309 | 341 ft | 0 kts | 343° |
| 2026-05-08 21:12 | 49.00820 | 2.55308 | 341 ft | 3 kts | 343° |
| 2026-05-08 21:12 | 49.00881 | 2.55280 | 343 ft | 15 kts | 344° |
| 2026-05-08 21:12 | 49.01006 | 2.55236 | 348 ft | 22 kts | 343° |
| 2026-05-08 21:12 | 49.01112 | 2.55185 | 352 ft | 26 kts | 349° |
| 2026-05-08 21:13 | 49.01389 | 2.55197 | 360 ft | 31 kts | 349° |
| 2026-05-08 21:13 | 49.01526 | 2.55168 | 364 ft | 16 kts | 353° |
| 2026-05-08 21:13 | 49.01617 | 2.55154 | 366 ft | 17 kts | 357° |
| 2026-05-08 21:13 | 49.01764 | 2.55141 | 369 ft | 22 kts | 353° |
| 2026-05-08 21:14 | 49.01856 | 2.55057 | 371 ft | 0 kts | 301° |
| 2026-05-08 21:14 | 49.01848 | 2.55079 | 371 ft | 7 kts | 295° |
| 2026-05-08 21:14 | 49.01854 | 2.55037 | 371 ft | 12 kts | 278° |
| 2026-05-08 21:14 | 49.01840 | 2.54778 | 370 ft | 23 kts | 266° |
| 2026-05-08 21:15 | 49.01827 | 2.54526 | 367 ft | 22 kts | 266° |
| 2026-05-08 21:15 | 49.01820 | 2.54362 | 367 ft | 24 kts | 266° |
| 2026-05-08 21:15 | 49.01805 | 2.54068 | 365 ft | 30 kts | 266° |
| 2026-05-08 21:15 | 49.01785 | 2.53715 | 363 ft | 26 kts | 268° |
| 2026-05-08 21:16 | 49.01778 | 2.53583 | 363 ft | 4 kts | 266° |
| 2026-05-08 21:16 | 49.01777 | 2.53565 | 363 ft | 0 kts | 266° |
| 2026-05-08 21:17 | 49.01773 | 2.53501 | 363 ft | 13 kts | 266° |
| 2026-05-08 21:17 | 49.01757 | 2.53205 | 365 ft | 27 kts | 267° |
| 2026-05-08 21:17 | 49.01739 | 2.52863 | 368 ft | 37 kts | 266° |
| 2026-05-08 21:17 | 49.01723 | 2.52582 | 370 ft | 43 kts | 266° |
| 2026-05-08 21:18 | 49.01741 | 2.52308 | 371 ft | 9 kts | 293° |
| 2026-05-08 21:18 | 49.01745 | 2.52292 | 371 ft | 0 kts | 287° |
| 2026-05-08 21:18 | 49.01748 | 2.52275 | 371 ft | 1 kts | 288° |
| 2026-05-08 21:19 | 49.01744 | 2.52293 | 371 ft | 3 kts | 294° |
| 2026-05-08 21:19 | 49.01730 | 2.52330 | 372 ft | 7 kts | 308° |
| 2026-05-08 21:19 | 49.01688 | 2.52384 | 371 ft | 2 kts | 326° |
| 2026-05-08 21:19 | 49.01704 | 2.52371 | 371 ft | 6 kts | 335° |
| 2026-05-08 21:20 | 49.01773 | 2.52354 | 373 ft | 12 kts | 360° |
| 2026-05-08 21:20 | 49.01866 | 2.52357 | 374 ft | 12 kts | 355° |
| 2026-05-08 21:20 | 49.01902 | 2.52352 | 374 ft | 0 kts | 355° |
| 2026-05-08 21:22 | 49.01945 | 2.52346 | 374 ft | 13 kts | 355° |
| 2026-05-08 21:23 | 49.02030 | 2.52336 | 374 ft | 15 kts | 356° |
| 2026-05-08 21:23 | 49.02097 | 2.52338 | 374 ft | 8 kts | 15° |
| 2026-05-08 21:23 | 49.02084 | 2.52329 | 374 ft | 1 kts | 25° |
| 2026-05-08 21:23 | 49.02120 | 2.52369 | 374 ft | 13 kts | 47° |
| 2026-05-08 21:24 | 49.02136 | 2.52403 | 374 ft | 1 kts | 56° |
| 2026-05-08 21:24 | 49.02119 | 2.52348 | 374 ft | 5 kts | 70° |
| 2026-05-08 21:24 | 49.02124 | 2.52383 | 374 ft | 10 kts | 80° |
| 2026-05-08 21:24 | 49.02135 | 2.52608 | 375 ft | 24 kts | 86° |
| 2026-05-08 21:25 | 49.02149 | 2.52992 | 374 ft | 67 kts | 86° |
| 2026-05-08 21:25 | 49.02222 | 2.54108 | 376 ft | 141 kts | 86° |
| 2026-05-08 21:25 | 49.02300 | 2.55893 | 508 ft | 187 kts | 84° |
| 2026-05-08 21:25 | 49.02456 | 2.57688 | 1598 ft | 165 kts | 83° |
| 2026-05-08 21:26 | 49.02516 | 2.59584 | 2004 ft | 195 kts | 86° |
| 2026-05-08 21:26 | 49.02577 | 2.61711 | 2818 ft | 195 kts | 86° |
| 2026-05-08 21:26 | 49.02577 | 2.62905 | 3855 ft | 165 kts | 84° |
| 2026-05-08 21:26 | 49.02754 | 2.64659 | 4402 ft | 175 kts | 67° |
| 2026-05-08 21:27 | 49.03280 | 2.66237 | 5167 ft | 166 kts | 47° |
| 2026-05-08 21:27 | 49.04438 | 2.67692 | 6038 ft | 161 kts | 18° |
| 2026-05-08 21:27 | 49.05122 | 2.68115 | 6387 ft | 161 kts | 20° |
| 2026-05-08 21:27 | 49.06406 | 2.69625 | 6658 ft | 192 kts | 46° |
| 2026-05-08 21:28 | 49.06926 | 2.70797 | 6812 ft | 206 kts | 57° |
| 2026-05-08 21:28 | 49.07492 | 2.72954 | 6915 ft | 234 kts | 70° |
| 2026-05-08 21:28 | 49.07789 | 2.75536 | 7107 ft | 257 kts | 82° |
| 2026-05-08 21:28 | 49.07837 | 2.79288 | 7651 ft | 270 kts | 81° |
| 2026-05-08 21:29 | 49.08135 | 2.81117 | 7924 ft | 268 kts | 60° |
| 2026-05-08 21:29 | 49.09327 | 2.83178 | 8422 ft | 256 kts | 24° |
| 2026-05-08 21:29 | 49.11554 | 2.83568 | 9083 ft | 242 kts | 336° |
| 2026-05-08 21:29 | 49.12535 | 2.82722 | 9469 ft | 237 kts | 321° |
| 2026-05-08 21:30 | 49.13862 | 2.81222 | 9978 ft | 241 kts | 322° |
| 2026-05-08 21:30 | 49.15726 | 2.79265 | 10069 ft | 243 kts | 322° |
| 2026-05-08 21:30 | 49.17118 | 2.77798 | 10074 ft | 242 kts | 322° |
| 2026-05-08 21:30 | 49.18616 | 2.76619 | 10067 ft | 248 kts | 343° |
| 2026-05-08 21:31 | 49.19773 | 2.76575 | 10090 ft | 258 kts | 6° |
| 2026-05-08 21:31 | 49.22006 | 2.78101 | 10420 ft | 270 kts | 21° |
| 2026-05-08 21:31 | 49.23677 | 2.79435 | 10692 ft | 271 kts | 21° |
| 2026-05-08 21:31 | 49.25368 | 2.80775 | 11045 ft | 275 kts | 21° |
| 2026-05-08 21:32 | 49.26501 | 2.81680 | 11278 ft | 278 kts | 21° |
| 2026-05-08 21:32 | 49.28224 | 2.83053 | 11626 ft | 282 kts | 21° |
| 2026-05-08 21:32 | 49.29978 | 2.84449 | 11977 ft | 286 kts | 21° |
| 2026-05-08 21:32 | 49.31743 | 2.85855 | 12327 ft | 288 kts | 21° |
| 2026-05-08 21:33 | 49.33533 | 2.87288 | 12680 ft | 290 kts | 21° |
| 2026-05-08 21:33 | 49.35319 | 2.88729 | 13030 ft | 292 kts | 21° |
| 2026-05-08 21:33 | 49.37730 | 2.90682 | 13500 ft | 295 kts | 21° |
| 2026-05-08 21:33 | 49.38936 | 2.91661 | 13734 ft | 296 kts | 21° |
| 2026-05-08 21:34 | 49.40762 | 2.93148 | 14085 ft | 299 kts | 21° |
| 2026-05-08 21:34 | 49.43223 | 2.95157 | 14555 ft | 303 kts | 21° |
| 2026-05-08 21:34 | 49.44469 | 2.96173 | 14767 ft | 308 kts | 20° |
| 2026-05-08 21:34 | 49.46423 | 2.97649 | 15095 ft | 316 kts | 14° |
| 2026-05-08 21:35 | 49.48591 | 2.98322 | 15160 ft | 320 kts | 349° |
| 2026-05-08 21:35 | 49.50725 | 2.97467 | 15338 ft | 319 kts | 326° |
| 2026-05-08 21:35 | 49.52508 | 2.95367 | 15405 ft | 327 kts | 307° |
| 2026-05-08 21:35 | 49.54158 | 2.91308 | 15781 ft | 338 kts | 295° |
| 2026-05-08 21:36 | 49.54927 | 2.89177 | 15902 ft | 348 kts | 296° |
| 2026-05-08 21:36 | 49.56189 | 2.85903 | 16162 ft | 360 kts | 301° |
| 2026-05-08 21:36 | 49.57943 | 2.83034 | 16529 ft | 374 kts | 319° |
| 2026-05-08 21:36 | 49.60233 | 2.81026 | 16925 ft | 383 kts | 329° |
| 2026-05-08 21:37 | 49.62748 | 2.79562 | 17293 ft | 390 kts | 337° |
| 2026-05-08 21:37 | 49.65403 | 2.78579 | 17669 ft | 397 kts | 343° |
| 2026-05-08 21:37 | 49.68166 | 2.77904 | 18048 ft | 402 kts | 345° |
| 2026-05-08 21:37 | 49.71793 | 2.77217 | 18538 ft | 406 kts | 346° |
| 2026-05-08 21:38 | 49.73668 | 2.76903 | 18789 ft | 408 kts | 347° |
| 2026-05-08 21:38 | 49.76488 | 2.76465 | 19163 ft | 411 kts | 348° |
| 2026-05-08 21:38 | 49.79378 | 2.76248 | 19539 ft | 418 kts | 353° |
| 2026-05-08 21:38 | 49.83286 | 2.77281 | 20038 ft | 440 kts | 14° |
| 2026-05-08 21:39 | 49.85190 | 2.78552 | 20315 ft | 447 kts | 19° |
| 2026-05-08 21:39 | 49.87950 | 2.80887 | 20679 ft | 456 kts | 25° |
| 2026-05-08 21:39 | 49.90672 | 2.83536 | 21060 ft | 460 kts | 26° |
| 2026-05-08 21:39 | 49.94301 | 2.87074 | 21560 ft | 463 kts | 25° |
| 2026-05-08 21:40 | 49.97037 | 2.89719 | 21935 ft | 466 kts | 25° |
| 2026-05-08 21:40 | 49.99802 | 2.92404 | 22312 ft | 468 kts | 25° |
| 2026-05-08 21:40 | 50.01664 | 2.94223 | 22566 ft | 469 kts | 25° |
| 2026-05-08 21:41 | 50.07200 | 2.99670 | 23317 ft | 473 kts | 26° |
| 2026-05-08 21:41 | 50.10897 | 3.03322 | 23817 ft | 474 kts | 26° |
| 2026-05-08 21:41 | 50.12750 | 3.05155 | 24067 ft | 475 kts | 26° |
| 2026-05-08 21:41 | 50.16478 | 3.08851 | 24570 ft | 476 kts | 26° |
| 2026-05-08 21:42 | 50.18359 | 3.10718 | 24824 ft | 477 kts | 26° |
| 2026-05-08 21:42 | 50.21132 | 3.13418 | 25193 ft | 475 kts | 22° |
| 2026-05-08 21:42 | 50.24052 | 3.15763 | 25572 ft | 470 kts | 17° |
| 2026-05-08 21:42 | 50.27017 | 3.17872 | 25950 ft | 469 kts | 16° |
| 2026-05-08 21:43 | 50.29985 | 3.19978 | 26326 ft | 469 kts | 17° |
| 2026-05-08 21:43 | 50.32943 | 3.22105 | 26702 ft | 469 kts | 17° |
| 2026-05-08 21:43 | 50.35904 | 3.24224 | 27078 ft | 468 kts | 16° |
| 2026-05-08 21:43 | 50.39837 | 3.27018 | 27578 ft | 467 kts | 16° |
| 2026-05-08 21:44 | 50.41814 | 3.28451 | 27831 ft | 468 kts | 17° |
| 2026-05-08 21:44 | 50.44723 | 3.30712 | 28206 ft | 468 kts | 18° |
| 2026-05-08 21:44 | 50.47618 | 3.33033 | 28582 ft | 467 kts | 18° |
| 2026-05-08 21:44 | 50.50503 | 3.35326 | 28958 ft | 466 kts | 18° |
| 2026-05-08 21:45 | 50.54372 | 3.38241 | 29459 ft | 460 kts | 14° |
| 2026-05-08 21:45 | 50.56331 | 3.39579 | 29712 ft | 458 kts | 13° |
| 2026-05-08 21:45 | 50.59246 | 3.41540 | 30088 ft | 456 kts | 13° |
| 2026-05-08 21:45 | 50.63065 | 3.44151 | 30583 ft | 454 kts | 13° |
| 2026-05-08 21:46 | 50.64978 | 3.45470 | 30833 ft | 452 kts | 13° |
| 2026-05-08 21:46 | 50.67841 | 3.47444 | 31209 ft | 449 kts | 13° |
| 2026-05-08 21:46 | 50.70684 | 3.49407 | 31583 ft | 447 kts | 13° |
| 2026-05-08 21:46 | 50.73510 | 3.51361 | 31959 ft | 444 kts | 13° |
| 2026-05-08 21:47 | 50.76339 | 3.53322 | 32337 ft | 441 kts | 13° |
| 2026-05-08 21:47 | 50.80041 | 3.55892 | 32836 ft | 436 kts | 12° |
| 2026-05-08 21:47 | 50.81897 | 3.57183 | 33088 ft | 434 kts | 12° |
| 2026-05-08 21:47 | 50.84556 | 3.59034 | 33452 ft | 430 kts | 12° |
| 2026-05-08 21:48 | 50.88172 | 3.61556 | 33952 ft | 424 kts | 12° |
| 2026-05-08 21:48 | 50.90855 | 3.63431 | 34327 ft | 420 kts | 11° |
| 2026-05-08 21:48 | 50.92611 | 3.64666 | 34575 ft | 417 kts | 11° |
| 2026-05-08 21:48 | 50.96135 | 3.67185 | 34762 ft | 420 kts | 11° |
| 2026-05-08 21:49 | 51.00606 | 3.70390 | 34854 ft | 426 kts | 9° |
| 2026-05-08 21:49 | 51.06963 | 3.74948 | 34977 ft | 434 kts | 9° |
| 2026-05-08 21:50 | 51.12503 | 3.78945 | 35085 ft | 442 kts | 9° |
| 2026-05-08 21:50 | 51.17199 | 3.82348 | 35125 ft | 449 kts | 9° |